TimeCST,TemperatureF,Dew PointF,Humidity,Sea Level PressureIn,VisibilityMPH,Wind Direction,Wind SpeedMPH,Gust SpeedMPH,PrecipitationIn,Events,Conditions,WindDirDegrees,DateUTC
12:15 AM,30.2,21.2,69,29.91,10.0,West,24.2,29.9,N/A,,Mostly Cloudy,270,2012-12-21 06:15:00
12:35 AM,30.2,21.2,69,29.92,10.0,West,23.0,35.7,N/A,,Mostly Cloudy,270,2012-12-21 06:35:00
12:55 AM,30.2,21.2,69,29.93,10.0,West,21.9,31.1,N/A,,Overcast,280,2012-12-21 06:55:00
1:15 AM,30.2,21.2,69,29.93,10.0,West,24.2,32.2,N/A,,Mostly Cloudy,270,2012-12-21 07:15:00
1:35 AM,30.2,21.2,69,29.94,10.0,West,23.0,31.1,N/A,,Scattered Clouds,280,2012-12-21 07:35:00
1:55 AM,30.2,21.2,69,29.95,10.0,West,23.0,29.9,N/A,,Scattered Clouds,280,2012-12-21 07:55:00
2:15 AM,30.2,21.2,69,29.96,10.0,West,21.9,32.2,N/A,,Scattered Clouds,270,2012-12-21 08:15:00
2:35 AM,30.2,21.2,69,29.96,10.0,West,19.6,29.9,N/A,,Clear,280,2012-12-21 08:35:00
2:55 AM,30.2,21.2,69,29.97,10.0,West,20.7,29.9,N/A,,Clear,280,2012-12-21 08:55:00
3:15 AM,30.2,19.4,64,29.97,10.0,WNW,23.0,28.8,N/A,,Clear,290,2012-12-21 09:15:00
3:35 AM,30.2,19.4,64,29.98,10.0,West,18.4,28.8,N/A,,Clear,280,2012-12-21 09:35:00
3:55 AM,30.2,19.4,64,29.98,10.0,West,24.2,29.9,N/A,,Clear,280,2012-12-21 09:55:00
4:15 AM,30.2,19.4,64,29.98,10.0,WNW,20.7,27.6,N/A,,Clear,290,2012-12-21 10:15:00
4:35 AM,30.2,19.4,64,29.99,10.0,West,17.3,31.1,N/A,,Clear,280,2012-12-21 10:35:00
4:55 AM,30.2,19.4,64,30.00,10.0,WNW,18.4,29.9,N/A,,Clear,290,2012-12-21 10:55:00
5:15 AM,30.2,19.4,64,30.00,10.0,WNW,16.1,24.2,N/A,,Clear,290,2012-12-21 11:15:00
5:35 AM,30.2,19.4,64,30.01,10.0,West,20.7,26.5,N/A,,Clear,280,2012-12-21 11:35:00
5:55 AM,30.2,19.4,64,30.02,10.0,WNW,17.3,28.8,N/A,,Clear,290,2012-12-21 11:55:00
6:15 AM,28.4,19.4,69,30.03,10.0,West,17.3,26.5,N/A,,Clear,280,2012-12-21 12:15:00
6:35 AM,28.4,19.4,69,30.04,10.0,WNW,17.3,24.2,N/A,,Clear,290,2012-12-21 12:35:00
6:55 AM,28.4,19.4,69,30.05,10.0,West,13.8,29.9,N/A,,Clear,280,2012-12-21 12:55:00
7:15 AM,28.4,19.4,69,30.06,10.0,West,17.3,24.2,N/A,,Clear,280,2012-12-21 13:15:00
7:35 AM,28.4,17.6,64,30.07,10.0,West,17.3,23.0,N/A,,Clear,280,2012-12-21 13:35:00
7:55 AM,30.2,17.6,60,30.08,10.0,West,17.3,24.2,N/A,,Clear,280,2012-12-21 13:55:00
8:15 AM,30.2,17.6,60,30.09,10.0,West,18.4,26.5,N/A,,Clear,280,2012-12-21 14:15:00
8:35 AM,30.2,17.6,60,30.10,10.0,West,21.9,27.6,N/A,,Clear,280,2012-12-21 14:35:00
8:55 AM,32.0,17.6,55,30.11,10.0,WNW,20.7,-,N/A,,Clear,290,2012-12-21 14:55:00
9:15 AM,32.0,17.6,55,30.13,10.0,West,18.4,27.6,N/A,,Clear,280,2012-12-21 15:15:00
9:35 AM,32.0,19.4,60,30.14,10.0,West,21.9,28.8,N/A,,Clear,280,2012-12-21 15:35:00
9:55 AM,32.0,19.4,60,30.15,10.0,WNW,19.6,27.6,N/A,,Clear,290,2012-12-21 15:55:00
10:15 AM,33.8,19.4,56,30.15,10.0,West,19.6,27.6,N/A,,Clear,280,2012-12-21 16:15:00
10:35 AM,33.8,19.4,56,30.15,10.0,WNW,20.7,24.2,N/A,,Clear,290,2012-12-21 16:35:00
10:55 AM,33.8,19.4,56,30.15,10.0,West,20.7,26.5,N/A,,Clear,280,2012-12-21 16:55:00
11:15 AM,35.6,19.4,52,30.15,10.0,WNW,16.1,27.6,N/A,,Clear,300,2012-12-21 17:15:00
11:35 AM,35.6,19.4,52,30.15,10.0,WNW,25.3,33.4,N/A,,Clear,290,2012-12-21 17:35:00
11:55 AM,35.6,17.6,48,30.16,10.0,WNW,26.5,33.4,N/A,,Clear,300,2012-12-21 17:55:00
12:15 PM,35.6,17.6,48,30.17,10.0,WNW,21.9,27.6,N/A,,Clear,290,2012-12-21 18:15:00
12:35 PM,37.4,17.6,45,30.17,10.0,WNW,17.3,26.5,N/A,,Clear,300,2012-12-21 18:35:00
12:55 PM,37.4,17.6,45,30.16,10.0,WNW,23.0,31.1,N/A,,Clear,300,2012-12-21 18:55:00
1:15 PM,37.4,17.6,45,30.17,10.0,WNW,17.3,25.3,N/A,,Clear,300,2012-12-21 19:15:00
1:35 PM,37.4,15.8,41,30.18,10.0,WNW,24.2,29.9,N/A,,Clear,290,2012-12-21 19:35:00
1:55 PM,37.4,17.6,45,30.17,10.0,NW,16.1,27.6,N/A,,Clear,310,2012-12-21 19:55:00
2:15 PM,37.4,17.6,45,30.17,10.0,NW,16.1,26.5,N/A,,Clear,310,2012-12-21 20:15:00
2:35 PM,37.4,15.8,41,30.18,10.0,WNW,16.1,28.8,N/A,,Clear,300,2012-12-21 20:35:00
2:55 PM,37.4,15.8,41,30.18,10.0,NW,16.1,31.1,N/A,,Clear,310,2012-12-21 20:55:00
3:15 PM,37.4,14.0,38,30.19,10.0,WNW,16.1,27.6,N/A,,Clear,300,2012-12-21 21:15:00
3:35 PM,37.4,15.8,41,30.20,10.0,WNW,18.4,25.3,N/A,,Clear,300,2012-12-21 21:35:00
3:55 PM,35.6,14.0,41,30.21,10.0,WNW,13.8,20.7,N/A,,Clear,300,2012-12-21 21:55:00
4:15 PM,35.6,15.8,44,30.21,10.0,WNW,15.0,21.9,N/A,,Clear,290,2012-12-21 22:15:00
4:35 PM,33.8,14.0,44,30.22,10.0,WNW,12.7,21.9,N/A,,Clear,290,2012-12-21 22:35:00
4:55 PM,33.8,14.0,44,30.23,10.0,WNW,16.1,19.6,N/A,,Clear,290,2012-12-21 22:55:00
5:15 PM,33.8,14.0,44,30.23,10.0,WNW,12.7,-,N/A,,Clear,290,2012-12-21 23:15:00
5:35 PM,32.0,14.0,48,30.24,10.0,WNW,13.8,20.7,N/A,,Clear,290,2012-12-21 23:35:00
5:55 PM,32.0,15.8,51,30.24,10.0,West,12.7,18.4,N/A,,Clear,280,2012-12-21 23:55:00
6:15 PM,32.0,17.6,55,30.25,10.0,West,9.2,-,N/A,,Clear,280,2012-12-22 00:15:00
6:35 PM,32.0,17.6,55,30.25,10.0,West,10.4,-,N/A,,Clear,280,2012-12-22 00:35:00
6:55 PM,32.0,17.6,55,30.26,10.0,West,8.1,-,N/A,,Clear,280,2012-12-22 00:55:00
7:15 PM,32.0,17.6,55,30.26,10.0,West,9.2,-,N/A,,Clear,280,2012-12-22 01:15:00
7:35 PM,32.0,17.6,55,30.26,10.0,West,10.4,-,N/A,,Clear,280,2012-12-22 01:35:00
7:55 PM,30.2,17.6,60,30.27,10.0,West,11.5,-,N/A,,Clear,270,2012-12-22 01:55:00
8:15 PM,30.2,17.6,60,30.27,10.0,WNW,10.4,-,N/A,,Clear,290,2012-12-22 02:15:00
8:35 PM,32.0,15.8,51,30.27,10.0,WNW,12.7,17.3,N/A,,Clear,290,2012-12-22 02:35:00
8:55 PM,32.0,14.0,48,30.27,10.0,WNW,11.5,16.1,N/A,,Clear,290,2012-12-22 02:55:00
9:15 PM,30.2,14.0,51,30.27,10.0,WNW,9.2,-,N/A,,Clear,300,2012-12-22 03:15:00
9:35 PM,30.2,15.8,55,30.28,10.0,WNW,6.9,-,N/A,,Clear,290,2012-12-22 03:35:00
9:55 PM,30.2,15.8,55,30.28,10.0,WNW,8.1,-,N/A,,Clear,290,2012-12-22 03:55:00
10:15 PM,30.2,15.8,55,30.28,10.0,WNW,8.1,-,N/A,,Clear,290,2012-12-22 04:15:00
10:35 PM,30.2,15.8,55,30.28,10.0,WNW,6.9,-,N/A,,Clear,300,2012-12-22 04:35:00
10:55 PM,30.2,15.8,55,30.28,10.0,WNW,8.1,-,N/A,,Clear,290,2012-12-22 04:55:00
11:15 PM,28.4,15.8,59,30.28,10.0,WNW,6.9,-,N/A,,Clear,290,2012-12-22 05:15:00
11:35 PM,28.4,15.8,59,30.28,10.0,WNW,5.8,-,N/A,,Clear,290,2012-12-22 05:35:00
11:55 PM,28.4,17.6,64,30.28,10.0,WNW,5.8,-,N/A,,Clear,300,2012-12-22 05:55:00